sensor_id;sensor_type;location;lat;lon;timestamp;pressure;altitude;pressure_sealevel;temperature;humidity
55733;BME280;41637;52.364;9.910;2023-03-16T00:01:06;101354.16;;;0.21;78.71
55733;BME280;41637;52.364;9.910;2023-03-16T00:03:34;101355.84;;;0.19;78.92
55733;BME280;41637;52.364;9.910;2023-03-16T00:06:02;101356.63;;;0.17;78.85
55733;BME280;41637;52.364;9.910;2023-03-16T00:08:30;101358.31;;;0.15;78.94
55733;BME280;41637;52.364;9.910;2023-03-16T00:10:57;101362.08;;;0.13;78.91
55733;BME280;41637;52.364;9.910;2023-03-16T00:13:24;101362.88;;;0.12;78.99
55733;BME280;41637;52.364;9.910;2023-03-16T00:15:56;101361.70;;;0.11;78.85
55733;BME280;41637;52.364;9.910;2023-03-16T00:18:24;101360.34;;;0.10;79.00
55733;BME280;41637;52.364;9.910;2023-03-16T00:20:56;101359.73;;;0.09;79.09
55733;BME280;41637;52.364;9.910;2023-03-16T00:23:25;101359.58;;;0.09;79.26
55733;BME280;41637;52.364;9.910;2023-03-16T00:25:58;101352.27;;;0.09;79.17
55733;BME280;41637;52.364;9.910;2023-03-16T00:28:26;101349.92;;;0.10;79.13
55733;BME280;41637;52.364;9.910;2023-03-16T00:30:53;101350.00;;;0.12;79.05
55733;BME280;41637;52.364;9.910;2023-03-16T00:33:25;101350.98;;;0.13;78.81
55733;BME280;41637;52.364;9.910;2023-03-16T00:35:52;101345.50;;;0.14;78.87
55733;BME280;41637;52.364;9.910;2023-03-16T00:38:30;101345.44;;;0.15;78.82
55733;BME280;41637;52.364;9.910;2023-03-16T00:40:57;101345.54;;;0.16;78.92
55733;BME280;41637;52.364;9.910;2023-03-16T00:43:24;101349.30;;;0.17;78.56
55733;BME280;41637;52.364;9.910;2023-03-16T00:46:01;101348.80;;;0.17;78.63
55733;BME280;41637;52.364;9.910;2023-03-16T00:48:34;101346.23;;;0.16;78.54
55733;BME280;41637;52.364;9.910;2023-03-16T00:51:05;101342.39;;;0.16;78.40
55733;BME280;41637;52.364;9.910;2023-03-16T00:53:33;101337.02;;;0.16;78.36
55733;BME280;41637;52.364;9.910;2023-03-16T00:56:02;101336.42;;;0.15;78.27
55733;BME280;41637;52.364;9.910;2023-03-16T00:58:35;101336.88;;;0.13;78.27
55733;BME280;41637;52.364;9.910;2023-03-16T01:01:06;101337.16;;;0.11;78.37
55733;BME280;41637;52.364;9.910;2023-03-16T01:03:34;101335.74;;;0.09;78.25
55733;BME280;41637;52.364;9.910;2023-03-16T01:06:13;101337.81;;;0.06;78.39
55733;BME280;41637;52.364;9.910;2023-03-16T01:08:42;101336.70;;;0.05;78.33
55733;BME280;41637;52.364;9.910;2023-03-16T01:11:12;101338.55;;;0.02;78.21
55733;BME280;41637;52.364;9.910;2023-03-16T01:13:39;101338.45;;;0.01;78.23
55733;BME280;41637;52.364;9.910;2023-03-16T01:16:06;101340.30;;;-0.01;78.21
55733;BME280;41637;52.364;9.910;2023-03-16T01:18:33;101341.84;;;-0.03;78.16
55733;BME280;41637;52.364;9.910;2023-03-16T01:21:05;101342.79;;;-0.05;78.18
55733;BME280;41637;52.364;9.910;2023-03-16T01:23:33;101339.70;;;-0.08;78.10
55733;BME280;41637;52.364;9.910;2023-03-16T01:26:00;101338.55;;;-0.13;77.99
55733;BME280;41637;52.364;9.910;2023-03-16T01:28:29;101337.07;;;-0.17;77.97
55733;BME280;41637;52.364;9.910;2023-03-16T01:31:05;101332.40;;;-0.20;77.93
55733;BME280;41637;52.364;9.910;2023-03-16T01:33:32;101327.44;;;-0.25;78.07
55733;BME280;41637;52.364;9.910;2023-03-16T01:36:05;101325.42;;;-0.26;78.05
55733;BME280;41637;52.364;9.910;2023-03-16T01:38:32;101324.13;;;-0.27;78.15
55733;BME280;41637;52.364;9.910;2023-03-16T01:41:00;101322.02;;;-0.27;78.19
55733;BME280;41637;52.364;9.910;2023-03-16T01:43:29;101320.79;;;-0.27;78.14
55733;BME280;41637;52.364;9.910;2023-03-16T01:51:37;101323.21;;;-0.21;77.94
55733;BME280;41637;52.364;9.910;2023-03-16T01:54:25;101327.97;;;-0.19;77.87
55733;BME280;41637;52.364;9.910;2023-03-16T02:02:19;101317.71;;;-0.16;77.73
55733;BME280;41637;52.364;9.910;2023-03-16T02:04:57;101315.88;;;-0.14;77.74
55733;BME280;41637;52.364;9.910;2023-03-16T02:07:26;101316.67;;;-0.13;77.65
55733;BME280;41637;52.364;9.910;2023-03-16T02:09:57;101317.97;;;-0.14;77.70
55733;BME280;41637;52.364;9.910;2023-03-16T02:12:26;101321.11;;;-0.14;77.67
55733;BME280;41637;52.364;9.910;2023-03-16T02:14:54;101326.91;;;-0.15;77.68
55733;BME280;41637;52.364;9.910;2023-03-16T02:17:27;101321.19;;;-0.19;77.72
55733;BME280;41637;52.364;9.910;2023-03-16T02:22:50;101326.96;;;-0.23;77.87
55733;BME280;41637;52.364;9.910;2023-03-16T02:26:00;101321.59;;;-0.26;77.86
55733;BME280;41637;52.364;9.910;2023-03-16T02:29:18;101311.74;;;-0.33;77.90
55733;BME280;41637;52.364;9.910;2023-03-16T02:31:52;101311.11;;;-0.43;77.99
55733;BME280;41637;52.364;9.910;2023-03-16T02:34:20;101308.84;;;-0.49;78.29
55733;BME280;41637;52.364;9.910;2023-03-16T02:36:48;101308.34;;;-0.52;78.49
55733;BME280;41637;52.364;9.910;2023-03-16T02:39:15;101304.52;;;-0.55;78.58
55733;BME280;41637;52.364;9.910;2023-03-16T02:41:42;101306.29;;;-0.59;78.61
55733;BME280;41637;52.364;9.910;2023-03-16T02:44:11;101298.24;;;-0.64;78.58
55733;BME280;41637;52.364;9.910;2023-03-16T02:46:42;101302.65;;;-0.68;78.61
55733;BME280;41637;52.364;9.910;2023-03-16T02:49:13;101296.27;;;-0.72;78.79
55733;BME280;41637;52.364;9.910;2023-03-16T02:51:43;101295.83;;;-0.76;78.92
55733;BME280;41637;52.364;9.910;2023-03-16T02:54:11;101293.72;;;-0.82;79.15
55733;BME280;41637;52.364;9.910;2023-03-16T02:56:38;101290.61;;;-0.89;79.27
55733;BME280;41637;52.364;9.910;2023-03-16T02:59:05;101286.06;;;-0.94;79.66
55733;BME280;41637;52.364;9.910;2023-03-16T03:01:32;101288.89;;;-0.98;79.67
55733;BME280;41637;52.364;9.910;2023-03-16T03:04:02;101285.84;;;-1.03;79.72
55733;BME280;41637;52.364;9.910;2023-03-16T03:06:29;101283.98;;;-1.07;79.63
55733;BME280;41637;52.364;9.910;2023-03-16T03:08:59;101283.47;;;-1.10;79.80
55733;BME280;41637;52.364;9.910;2023-03-16T03:11:27;101283.55;;;-1.15;79.72
55733;BME280;41637;52.364;9.910;2023-03-16T03:13:55;101281.77;;;-1.20;79.95
55733;BME280;41637;52.364;9.910;2023-03-16T03:16:22;101277.61;;;-1.27;80.14
55733;BME280;41637;52.364;9.910;2023-03-16T03:18:50;101276.93;;;-1.33;80.26
55733;BME280;41637;52.364;9.910;2023-03-16T03:21:18;101277.98;;;-1.39;80.53
55733;BME280;41637;52.364;9.910;2023-03-16T03:23:45;101274.70;;;-1.43;81.04
55733;BME280;41637;52.364;9.910;2023-03-16T03:26:13;101272.27;;;-1.46;81.19
55733;BME280;41637;52.364;9.910;2023-03-16T03:28:43;101274.72;;;-1.50;81.24
55733;BME280;41637;52.364;9.910;2023-03-16T03:31:16;101273.19;;;-1.53;81.36
55733;BME280;41637;52.364;9.910;2023-03-16T03:33:43;101276.19;;;-1.58;81.62
55733;BME280;41637;52.364;9.910;2023-03-16T03:36:11;101277.25;;;-1.61;82.13
55733;BME280;41637;52.364;9.910;2023-03-16T03:38:38;101275.02;;;-1.65;82.01
55733;BME280;41637;52.364;9.910;2023-03-16T03:41:05;101279.32;;;-1.68;81.99
55733;BME280;41637;52.364;9.910;2023-03-16T03:43:35;101279.02;;;-1.69;82.15
55733;BME280;41637;52.364;9.910;2023-03-16T03:46:02;101278.45;;;-1.71;82.33
55733;BME280;41637;52.364;9.910;2023-03-16T03:48:30;101279.42;;;-1.73;82.39
55733;BME280;41637;52.364;9.910;2023-03-16T03:50:56;101275.73;;;-1.76;82.75
55733;BME280;41637;52.364;9.910;2023-03-16T03:53:23;101279.84;;;-1.77;82.85
55733;BME280;41637;52.364;9.910;2023-03-16T03:55:50;101281.47;;;-1.79;82.63
55733;BME280;41637;52.364;9.910;2023-03-16T03:58:17;101279.42;;;-1.80;82.72
55733;BME280;41637;52.364;9.910;2023-03-16T04:00:44;101277.55;;;-1.80;82.82
55733;BME280;41637;52.364;9.910;2023-03-16T04:03:10;101279.23;;;-1.79;83.05
55733;BME280;41637;52.364;9.910;2023-03-16T04:05:37;101275.08;;;-1.79;82.92
55733;BME280;41637;52.364;9.910;2023-03-16T04:08:04;101279.61;;;-1.80;82.89
55733;BME280;41637;52.364;9.910;2023-03-16T04:10:31;101280.55;;;-1.81;82.72
55733;BME280;41637;52.364;9.910;2023-03-16T04:12:59;101280.27;;;-1.82;82.88
55733;BME280;41637;52.364;9.910;2023-03-16T04:15:26;101282.23;;;-1.83;82.86
55733;BME280;41637;52.364;9.910;2023-03-16T04:17:53;101281.21;;;-1.84;83.01
55733;BME280;41637;52.364;9.910;2023-03-16T04:20:20;101284.36;;;-1.85;83.07
55733;BME280;41637;52.364;9.910;2023-03-16T04:22:51;101280.73;;;-1.85;83.10
55733;BME280;41637;52.364;9.910;2023-03-16T04:25:25;101277.63;;;-1.85;83.30
55733;BME280;41637;52.364;9.910;2023-03-16T04:27:53;101279.36;;;-1.85;83.14
55733;BME280;41637;52.364;9.910;2023-03-16T04:30:21;101282.64;;;-1.85;83.31
55733;BME280;41637;52.364;9.910;2023-03-16T04:32:49;101281.08;;;-1.85;83.11
55733;BME280;41637;52.364;9.910;2023-03-16T04:35:17;101272.37;;;-1.87;83.12
55733;BME280;41637;52.364;9.910;2023-03-16T04:37:44;101269.50;;;-1.89;83.31
55733;BME280;41637;52.364;9.910;2023-03-16T04:40:11;101267.67;;;-1.90;83.63
55733;BME280;41637;52.364;9.910;2023-03-16T04:42:42;101271.08;;;-1.89;84.07
55733;BME280;41637;52.364;9.910;2023-03-16T04:45:10;101275.14;;;-1.87;84.01
55733;BME280;41637;52.364;9.910;2023-03-16T04:47:38;101273.17;;;-1.83;84.28
55733;BME280;41637;52.364;9.910;2023-03-16T04:50:06;101273.78;;;-1.78;84.15
55733;BME280;41637;52.364;9.910;2023-03-16T04:52:33;101274.59;;;-1.74;84.12
55733;BME280;41637;52.364;9.910;2023-03-16T04:55:00;101273.73;;;-1.70;84.43
55733;BME280;41637;52.364;9.910;2023-03-16T04:57:27;101278.16;;;-1.66;84.63
55733;BME280;41637;52.364;9.910;2023-03-16T04:59:53;101277.27;;;-1.61;84.57
55733;BME280;41637;52.364;9.910;2023-03-16T05:02:20;101274.29;;;-1.58;84.64
55733;BME280;41637;52.364;9.910;2023-03-16T05:04:47;101273.61;;;-1.55;84.52
55733;BME280;41637;52.364;9.910;2023-03-16T05:07:14;101278.58;;;-1.54;84.39
55733;BME280;41637;52.364;9.910;2023-03-16T05:09:41;101277.27;;;-1.52;84.44
55733;BME280;41637;52.364;9.910;2023-03-16T05:12:09;101278.20;;;-1.50;84.24
55733;BME280;41637;52.364;9.910;2023-03-16T05:14:36;101277.20;;;-1.48;84.25
55733;BME280;41637;52.364;9.910;2023-03-16T05:17:03;101277.23;;;-1.45;84.36
55733;BME280;41637;52.364;9.910;2023-03-16T05:19:30;101277.59;;;-1.42;84.37
55733;BME280;41637;52.364;9.910;2023-03-16T05:21:57;101278.10;;;-1.38;84.39
55733;BME280;41637;52.364;9.910;2023-03-16T05:24:24;101274.91;;;-1.34;84.25
55733;BME280;41637;52.364;9.910;2023-03-16T05:26:51;101274.77;;;-1.32;84.13
55733;BME280;41637;52.364;9.910;2023-03-16T05:29:18;101277.39;;;-1.26;84.18
55733;BME280;41637;52.364;9.910;2023-03-16T05:31:44;101278.98;;;-1.19;83.86
55733;BME280;41637;52.364;9.910;2023-03-16T05:34:14;101273.64;;;-1.14;83.77
55733;BME280;41637;52.364;9.910;2023-03-16T05:36:41;101269.18;;;-1.06;84.42
55733;BME280;41637;52.364;9.910;2023-03-16T05:39:10;101264.27;;;-0.96;84.59
55733;BME280;41637;52.364;9.910;2023-03-16T05:41:37;101263.13;;;-0.88;84.28
55733;BME280;41637;52.364;9.910;2023-03-16T05:44:04;101266.63;;;-0.79;84.27
55733;BME280;41637;52.364;9.910;2023-03-16T05:46:32;101262.85;;;-0.70;84.10
55733;BME280;41637;52.364;9.910;2023-03-16T05:48:59;101261.16;;;-0.62;83.70
55733;BME280;41637;52.364;9.910;2023-03-16T05:51:26;101263.56;;;-0.53;83.62
55733;BME280;41637;52.364;9.910;2023-03-16T05:53:53;101264.64;;;-0.44;83.17
55733;BME280;41637;52.364;9.910;2023-03-16T05:56:24;101262.79;;;-0.36;82.78
55733;BME280;41637;52.364;9.910;2023-03-16T05:58:52;101259.14;;;-0.31;82.64
55733;BME280;41637;52.364;9.910;2023-03-16T06:01:20;101252.56;;;-0.25;82.45
55733;BME280;41637;52.364;9.910;2023-03-16T06:03:48;101240.77;;;-0.20;82.32
55733;BME280;41637;52.364;9.910;2023-03-16T06:06:16;101235.30;;;-0.16;82.20
55733;BME280;41637;52.364;9.910;2023-03-16T06:08:43;101233.29;;;-0.09;82.00
55733;BME280;41637;52.364;9.910;2023-03-16T06:11:10;101228.12;;;0.00;81.79
55733;BME280;41637;52.364;9.910;2023-03-16T06:13:37;101234.48;;;0.07;81.72
55733;BME280;41637;52.364;9.910;2023-03-16T06:16:04;101237.29;;;0.15;81.52
55733;BME280;41637;52.364;9.910;2023-03-16T06:18:33;101236.20;;;0.21;81.38
55733;BME280;41637;52.364;9.910;2023-03-16T06:20:59;101238.02;;;0.28;81.44
55733;BME280;41637;52.364;9.910;2023-03-16T06:23:26;101236.26;;;0.37;81.33
55733;BME280;41637;52.364;9.910;2023-03-16T06:25:53;101235.36;;;0.46;81.27
55733;BME280;41637;52.364;9.910;2023-03-16T06:28:21;101237.96;;;0.57;81.13
55733;BME280;41637;52.364;9.910;2023-03-16T06:30:48;101240.26;;;0.68;80.99
55733;BME280;41637;52.364;9.910;2023-03-16T06:33:18;101249.83;;;0.78;80.48
55733;BME280;41637;52.364;9.910;2023-03-16T06:35:45;101252.48;;;0.89;80.61
55733;BME280;41637;52.364;9.910;2023-03-16T06:38:14;101253.40;;;0.96;80.00
55733;BME280;41637;52.364;9.910;2023-03-16T06:40:41;101250.44;;;1.05;79.94
55733;BME280;41637;52.364;9.910;2023-03-16T06:43:07;101251.49;;;1.12;79.64
55733;BME280;41637;52.364;9.910;2023-03-16T06:45:35;101250.17;;;1.22;79.29
55733;BME280;41637;52.364;9.910;2023-03-16T06:48:02;101252.88;;;1.31;79.25
55733;BME280;41637;52.364;9.910;2023-03-16T06:50:29;101251.52;;;1.39;78.62
55733;BME280;41637;52.364;9.910;2023-03-16T06:52:56;101254.36;;;1.43;78.37
55733;BME280;41637;52.364;9.910;2023-03-16T06:55:23;101260.89;;;1.50;78.28
55733;BME280;41637;52.364;9.910;2023-03-16T06:57:50;101265.77;;;1.55;77.91
55733;BME280;41637;52.364;9.910;2023-03-16T07:00:17;101264.41;;;1.59;77.45
55733;BME280;41637;52.364;9.910;2023-03-16T07:02:44;101268.21;;;1.65;77.49
55733;BME280;41637;52.364;9.910;2023-03-16T07:05:11;101274.33;;;1.73;77.55
55733;BME280;41637;52.364;9.910;2023-03-16T07:07:41;101281.39;;;1.82;77.42
55733;BME280;41637;52.364;9.910;2023-03-16T07:10:13;101276.08;;;1.91;77.18
55733;BME280;41637;52.364;9.910;2023-03-16T07:12:40;101284.61;;;1.99;76.74
55733;BME280;41637;52.364;9.910;2023-03-16T07:15:08;101284.93;;;2.07;76.68
55733;BME280;41637;52.364;9.910;2023-03-16T07:17:35;101289.27;;;2.15;76.49
55733;BME280;41637;52.364;9.910;2023-03-16T07:20:03;101292.60;;;2.25;76.18
55733;BME280;41637;52.364;9.910;2023-03-16T07:22:33;101295.17;;;2.33;75.93
55733;BME280;41637;52.364;9.910;2023-03-16T07:25:00;101295.54;;;2.43;75.88
55733;BME280;41637;52.364;9.910;2023-03-16T07:27:27;101293.31;;;2.52;75.63
55733;BME280;41637;52.364;9.910;2023-03-16T07:29:55;101290.33;;;2.62;75.21
55733;BME280;41637;52.364;9.910;2023-03-16T07:32:21;101292.48;;;2.71;75.12
55733;BME280;41637;52.364;9.910;2023-03-16T07:34:49;101298.05;;;2.79;74.80
55733;BME280;41637;52.364;9.910;2023-03-16T07:37:15;101302.84;;;2.85;74.04
55733;BME280;41637;52.364;9.910;2023-03-16T07:39:50;101307.14;;;2.96;73.94
55733;BME280;41637;52.364;9.910;2023-03-16T07:42:17;101307.94;;;3.07;73.55
55733;BME280;41637;52.364;9.910;2023-03-16T07:44:44;101309.15;;;3.21;73.95
55733;BME280;41637;52.364;9.910;2023-03-16T07:47:11;101308.57;;;3.37;73.13
55733;BME280;41637;52.364;9.910;2023-03-16T07:49:39;101310.98;;;3.51;72.46
55733;BME280;41637;52.364;9.910;2023-03-16T07:52:07;101311.21;;;3.62;71.65
55733;BME280;41637;52.364;9.910;2023-03-16T07:54:34;101314.83;;;3.75;71.34
55733;BME280;41637;52.364;9.910;2023-03-16T07:57:01;101315.63;;;3.87;71.61
55733;BME280;41637;52.364;9.910;2023-03-16T07:59:28;101313.98;;;4.04;71.52
55733;BME280;41637;52.364;9.910;2023-03-16T08:01:54;101309.23;;;4.21;70.67
55733;BME280;41637;52.364;9.910;2023-03-16T08:04:21;101307.83;;;4.39;70.06
55733;BME280;41637;52.364;9.910;2023-03-16T08:06:48;101309.27;;;4.56;69.89
55733;BME280;41637;52.364;9.910;2023-03-16T08:09:15;101308.23;;;4.72;69.06
55733;BME280;41637;52.364;9.910;2023-03-16T08:11:42;101307.60;;;4.80;67.83
55733;BME280;41637;52.364;9.910;2023-03-16T08:14:09;101308.50;;;4.82;66.47
55733;BME280;41637;52.364;9.910;2023-03-16T08:16:35;101302.30;;;4.82;65.85
55733;BME280;41637;52.364;9.910;2023-03-16T08:19:02;101300.77;;;4.86;65.41
55733;BME280;41637;52.364;9.910;2023-03-16T08:21:29;101307.30;;;4.97;65.68
55733;BME280;41637;52.364;9.910;2023-03-16T08:23:57;101307.77;;;5.02;64.43
55733;BME280;41637;52.364;9.910;2023-03-16T08:26:23;101305.98;;;5.11;63.65
55733;BME280;41637;52.364;9.910;2023-03-16T08:28:54;101309.13;;;5.18;62.77
55733;BME280;41637;52.364;9.910;2023-03-16T08:31:20;101312.06;;;5.26;62.71
55733;BME280;41637;52.364;9.910;2023-03-16T08:33:50;101313.23;;;5.32;61.93
55733;BME280;41637;52.364;9.910;2023-03-16T08:36:17;101312.98;;;5.33;61.46
55733;BME280;41637;52.364;9.910;2023-03-16T08:38:46;101318.37;;;5.36;62.15
55733;BME280;41637;52.364;9.910;2023-03-16T08:41:32;101318.58;;;5.41;61.90
55733;BME280;41637;52.364;9.910;2023-03-16T08:44:00;101315.62;;;5.45;61.51
55733;BME280;41637;52.364;9.910;2023-03-16T08:46:28;101311.42;;;5.54;61.59
55733;BME280;41637;52.364;9.910;2023-03-16T08:48:56;101312.70;;;5.66;61.27
55733;BME280;41637;52.364;9.910;2023-03-16T08:51:23;101313.70;;;5.81;60.72
55733;BME280;41637;52.364;9.910;2023-03-16T08:53:50;101315.42;;;5.90;59.39
55733;BME280;41637;52.364;9.910;2023-03-16T08:56:17;101315.41;;;5.99;58.73
55733;BME280;41637;52.364;9.910;2023-03-16T08:58:44;101313.13;;;6.05;58.11
55733;BME280;41637;52.364;9.910;2023-03-16T09:01:13;101312.75;;;6.14;57.85
55733;BME280;41637;52.364;9.910;2023-03-16T09:03:40;101311.01;;;6.26;57.86
55733;BME280;41637;52.364;9.910;2023-03-16T09:06:09;101312.04;;;6.39;57.48
55733;BME280;41637;52.364;9.910;2023-03-16T09:08:36;101314.84;;;6.45;56.53
55733;BME280;41637;52.364;9.910;2023-03-16T09:11:07;101312.59;;;6.54;56.39
55733;BME280;41637;52.364;9.910;2023-03-16T09:13:36;101308.25;;;6.64;55.04
55733;BME280;41637;52.364;9.910;2023-03-16T09:16:05;101304.52;;;6.70;53.85
55733;BME280;41637;52.364;9.910;2023-03-16T09:18:32;101300.59;;;6.79;53.78
55733;BME280;41637;52.364;9.910;2023-03-16T09:21:06;101299.06;;;6.92;53.44
55733;BME280;41637;52.364;9.910;2023-03-16T09:23:34;101295.85;;;6.99;52.26
55733;BME280;41637;52.364;9.910;2023-03-16T09:26:04;101295.86;;;7.09;52.37
55733;BME280;41637;52.364;9.910;2023-03-16T09:28:34;101290.02;;;7.13;50.96
55733;BME280;41637;52.364;9.910;2023-03-16T09:31:04;101288.40;;;7.21;51.15
55733;BME280;41637;52.364;9.910;2023-03-16T09:33:31;101291.30;;;7.28;50.89
55733;BME280;41637;52.364;9.910;2023-03-16T09:36:00;101288.39;;;7.37;51.16
55733;BME280;41637;52.364;9.910;2023-03-16T09:38:27;101288.81;;;7.48;50.85
55733;BME280;41637;52.364;9.910;2023-03-16T09:41:01;101283.77;;;7.56;50.54
55733;BME280;41637;52.364;9.910;2023-03-16T09:46:26;101278.45;;;7.63;48.98
55733;BME280;41637;52.364;9.910;2023-03-16T09:48:55;101275.83;;;7.67;49.57
55733;BME280;41637;52.364;9.910;2023-03-16T09:51:35;101272.09;;;7.71;49.62
55733;BME280;41637;52.364;9.910;2023-03-16T09:56:55;101274.54;;;7.94;48.16
55733;BME280;41637;52.364;9.910;2023-03-16T09:59:42;101267.65;;;8.07;47.96
55733;BME280;41637;52.364;9.910;2023-03-16T10:05:31;101270.81;;;8.26;46.20
55733;BME280;41637;52.364;9.910;2023-03-16T10:08:12;101272.23;;;8.32;46.23
55733;BME280;41637;52.364;9.910;2023-03-16T10:13:50;101272.04;;;8.52;46.50
55733;BME280;41637;52.364;9.910;2023-03-16T10:16:45;101273.98;;;8.62;45.45
55733;BME280;41637;52.364;9.910;2023-03-16T10:19:12;101280.60;;;8.68;44.38
55733;BME280;41637;52.364;9.910;2023-03-16T10:21:42;101273.73;;;8.70;44.04
55733;BME280;41637;52.364;9.910;2023-03-16T10:24:20;101268.30;;;8.73;43.58
55733;BME280;41637;52.364;9.910;2023-03-16T10:26:55;101268.53;;;8.78;43.42
55733;BME280;41637;52.364;9.910;2023-03-16T10:29:31;101268.83;;;8.86;43.56
55733;BME280;41637;52.364;9.910;2023-03-16T10:32:12;101271.67;;;8.93;42.39
55733;BME280;41637;52.364;9.910;2023-03-16T10:34:44;101256.30;;;9.02;42.78
55733;BME280;41637;52.364;9.910;2023-03-16T10:37:12;101255.30;;;9.14;42.68
55733;BME280;41637;52.364;9.910;2023-03-16T10:39:39;101250.73;;;9.19;42.60
55733;BME280;41637;52.364;9.910;2023-03-16T10:42:19;101255.33;;;9.26;41.98
55733;BME280;41637;52.364;9.910;2023-03-16T10:44:46;101247.42;;;9.33;41.90
55733;BME280;41637;52.364;9.910;2023-03-16T10:47:27;101244.25;;;9.42;42.07
55733;BME280;41637;52.364;9.910;2023-03-16T10:49:54;101245.25;;;9.48;41.36
55733;BME280;41637;52.364;9.910;2023-03-16T10:52:42;101242.16;;;9.52;40.76
55733;BME280;41637;52.364;9.910;2023-03-16T10:55:22;101242.55;;;9.59;41.00
55733;BME280;41637;52.364;9.910;2023-03-16T10:57:51;101238.56;;;9.67;41.05
55733;BME280;41637;52.364;9.910;2023-03-16T11:00:25;101235.04;;;9.75;40.70
55733;BME280;41637;52.364;9.910;2023-03-16T11:02:53;101233.70;;;9.85;40.48
55733;BME280;41637;52.364;9.910;2023-03-16T11:05:31;101230.80;;;10.00;40.23
55733;BME280;41637;52.364;9.910;2023-03-16T11:08:07;101223.45;;;10.09;40.55
55733;BME280;41637;52.364;9.910;2023-03-16T11:10:43;101219.50;;;10.12;39.94
55733;BME280;41637;52.364;9.910;2023-03-16T11:13:24;101218.38;;;10.14;39.81
55733;BME280;41637;52.364;9.910;2023-03-16T11:16:26;101218.76;;;10.11;39.64
55733;BME280;41637;52.364;9.910;2023-03-16T11:18:56;101218.67;;;10.23;40.19
55733;BME280;41637;52.364;9.910;2023-03-16T11:21:33;101223.98;;;10.24;38.64
55733;BME280;41637;52.364;9.910;2023-03-16T11:24:04;101219.73;;;10.25;39.21
55733;BME280;41637;52.364;9.910;2023-03-16T11:26:38;101213.00;;;10.38;39.95
55733;BME280;41637;52.364;9.910;2023-03-16T11:29:13;101212.35;;;10.50;38.66
55733;BME280;41637;52.364;9.910;2023-03-16T11:31:49;101212.27;;;10.54;38.63
55733;BME280;41637;52.364;9.910;2023-03-16T11:34:26;101209.07;;;10.71;38.97
55733;BME280;41637;52.364;9.910;2023-03-16T11:37:09;101210.21;;;10.88;39.11
55733;BME280;41637;52.364;9.910;2023-03-16T11:40:00;101205.21;;;11.03;38.43
55733;BME280;41637;52.364;9.910;2023-03-16T11:42:37;101200.72;;;11.19;37.94
55733;BME280;41637;52.364;9.910;2023-03-16T11:45:24;101198.39;;;11.24;36.23
55733;BME280;41637;52.364;9.910;2023-03-16T11:53:24;101172.40;;;11.40;36.47
55733;BME280;41637;52.364;9.910;2023-03-16T12:12:57;101153.75;;;13.31;32.15
55733;BME280;41637;52.364;9.910;2023-03-16T12:15:46;101147.66;;;13.60;33.42
55733;BME280;41637;52.364;9.910;2023-03-16T12:18:19;101148.38;;;14.01;33.04
55733;BME280;41637;52.364;9.910;2023-03-16T12:20:56;101140.82;;;14.30;30.66
55733;BME280;41637;52.364;9.910;2023-03-16T12:23:43;101147.38;;;14.73;30.14
55733;BME280;41637;52.364;9.910;2023-03-16T12:26:16;101139.09;;;15.25;30.03
55733;BME280;41637;52.364;9.910;2023-03-16T12:28:43;101124.41;;;15.79;28.95
55733;BME280;41637;52.364;9.910;2023-03-16T12:31:18;101124.43;;;16.47;27.62
55733;BME280;41637;52.364;9.910;2023-03-16T12:40:02;101115.18;;;18.83;24.81
55733;BME280;41637;52.364;9.910;2023-03-16T12:47:59;101104.48;;;18.98;25.36
55733;BME280;41637;52.364;9.910;2023-03-16T12:50:29;101098.07;;;19.19;24.93
55733;BME280;41637;52.364;9.910;2023-03-16T12:52:57;101097.66;;;19.46;25.40
55733;BME280;41637;52.364;9.910;2023-03-16T12:55:38;101096.89;;;19.83;24.32
55733;BME280;41637;52.364;9.910;2023-03-16T12:58:06;101090.84;;;20.36;23.63
55733;BME280;41637;52.364;9.910;2023-03-16T13:00:36;101084.28;;;20.67;23.72
55733;BME280;41637;52.364;9.910;2023-03-16T13:03:04;101079.70;;;20.82;23.38
55733;BME280;41637;52.364;9.910;2023-03-16T13:05:33;101067.09;;;20.08;23.87
55733;BME280;41637;52.364;9.910;2023-03-16T13:08:08;101077.48;;;18.95;25.43
55733;BME280;41637;52.364;9.910;2023-03-16T13:10:37;101071.89;;;17.92;26.07
55733;BME280;41637;52.364;9.910;2023-03-16T13:15:37;101072.66;;;16.32;28.84
55733;BME280;41637;52.364;9.910;2023-03-16T13:20:57;101064.52;;;15.12;30.56
55733;BME280;41637;52.364;9.910;2023-03-16T13:23:51;101059.00;;;14.47;31.57
55733;BME280;41637;52.364;9.910;2023-03-16T13:26:35;101054.54;;;13.95;32.97
55733;BME280;41637;52.364;9.910;2023-03-16T13:31:44;101043.33;;;12.90;34.65
55733;BME280;41637;52.364;9.910;2023-03-16T13:34:14;101036.02;;;12.62;35.46
55733;BME280;41637;52.364;9.910;2023-03-16T13:36:45;101032.98;;;12.50;36.31
55733;BME280;41637;52.364;9.910;2023-03-16T13:39:22;101038.56;;;12.55;36.32
55733;BME280;41637;52.364;9.910;2023-03-16T13:42:03;101034.65;;;12.53;35.75
55733;BME280;41637;52.364;9.910;2023-03-16T13:44:39;101040.44;;;12.68;34.69
55733;BME280;41637;52.364;9.910;2023-03-16T13:47:06;101035.31;;;13.05;33.41
55733;BME280;41637;52.364;9.910;2023-03-16T13:49:42;101033.79;;;13.54;32.09
55733;BME280;41637;52.364;9.910;2023-03-16T13:52:35;101034.95;;;14.11;31.01
55733;BME280;41637;52.364;9.910;2023-03-16T13:55:16;101035.39;;;14.70;30.86
55733;BME280;41637;52.364;9.910;2023-03-16T13:57:46;101028.17;;;14.95;30.45
55733;BME280;41637;52.364;9.910;2023-03-16T14:00:22;101024.12;;;14.96;30.83
55733;BME280;41637;52.364;9.910;2023-03-16T14:02:54;101021.64;;;14.82;31.42
55733;BME280;41637;52.364;9.910;2023-03-16T14:05:32;101017.17;;;14.50;31.76
55733;BME280;41637;52.364;9.910;2023-03-16T14:08:01;101009.70;;;14.17;32.72
55733;BME280;41637;52.364;9.910;2023-03-16T14:10:31;101009.27;;;13.87;33.20
55733;BME280;41637;52.364;9.910;2023-03-16T14:13:22;100998.98;;;13.48;33.49
55733;BME280;41637;52.364;9.910;2023-03-16T14:16:02;101004.75;;;12.93;33.36
55733;BME280;41637;52.364;9.910;2023-03-16T14:21:23;100993.14;;;12.12;35.38
55733;BME280;41637;52.364;9.910;2023-03-16T14:23:57;100990.42;;;11.93;35.97